Time;durP1;ratioP1;P1;durP2;ratioP2;P2;SDS_P1;SDS_P2;PMS_P1;PMS_P2;Temp;Humidity;BMP_temperature;BMP_pressure;BME280_temperature;BME280_humidity;BME280_pressure;Samples;Min_cycle;Max_cycle;Signal;HPM_P1;HPM_P2
2023/01/02 00:01:24;;;;;;;;;3.75;3.00;;;;;15.77;61.78;100805.53;5059059;28;45239;-58
2023/01/02 00:03:50;;;;;;;;;5.50;4.50;;;;;15.74;61.72;100807.44;5060409;28;45161;-58
2023/01/02 00:06:17;;;;;;;;;8.00;6.00;;;;;15.74;61.84;100807.44;5059745;28;45185;-58
2023/01/02 00:08:42;;;;;;;;;6.00;4.00;;;;;15.65;61.97;100794.50;5059858;28;47017;-58
2023/01/02 00:11:07;;;;;;;;;6.50;5.00;;;;;15.72;62.12;100825.16;5059341;28;45344;-58
2023/01/02 00:13:33;;;;;;;;;6.25;4.75;;;;;15.72;62.24;100822.50;5060158;28;45295;-58
2023/01/02 00:15:58;;;;;;;;;7.25;5.50;;;;;15.74;62.26;100823.31;5059838;28;45577;-58
2023/01/02 00:18:24;;;;;;;;;5.75;4.50;;;;;15.69;62.14;100827.91;5059831;28;46221;-58
2023/01/02 00:20:49;;;;;;;;;6.50;5.00;;;;;15.71;62.28;100826.94;5062679;28;45437;-58
2023/01/02 00:23:14;;;;;;;;;6.50;5.50;;;;;15.67;62.52;100835.03;5059942;28;45504;-58
2023/01/02 00:25:40;;;;;;;;;5.00;4.00;;;;;15.66;62.42;100820.06;5046235;28;45380;-58
2023/01/02 00:28:05;;;;;;;;;5.75;5.00;;;;;15.66;62.73;100830.66;5055439;28;45424;-58
2023/01/02 00:30:31;;;;;;;;;9.50;5.00;;;;;15.70;62.45;100838.44;5059586;28;45488;-58
2023/01/02 00:32:56;;;;;;;;;4.75;4.75;;;;;15.65;62.45;100819.22;5060025;28;45460;-58
2023/01/02 00:35:21;;;;;;;;;10.00;6.75;;;;;15.65;62.18;100805.97;5059725;28;45327;-58
2023/01/02 00:37:47;;;;;;;;;6.00;3.75;;;;;15.65;62.89;100821.00;5059447;28;45336;-58
2023/01/02 00:40:12;;;;;;;;;6.50;4.50;;;;;15.66;62.61;100813.00;5075209;27;45326;-58
2023/01/02 00:42:41;;;;;;;;;10.25;5.75;;;;;15.61;62.58;100807.00;5056998;28;45519;-58
2023/01/02 00:45:08;;;;;;;;;4.50;3.50;;;;;15.64;62.78;100812.16;5059567;28;45212;-58
2023/01/02 00:47:34;;;;;;;;;4.00;4.00;;;;;15.56;62.83;100820.38;5059415;28;46199;-58
2023/01/02 00:49:59;;;;;;;;;4.50;3.50;;;;;15.59;62.68;100830.84;5059321;28;45327;-58
2023/01/02 00:52:25;;;;;;;;;6.75;5.75;;;;;15.56;63.07;100828.31;5059332;28;45593;-58
2023/01/02 00:54:50;;;;;;;;;6.50;5.25;;;;;15.54;63.35;100819.56;5074919;28;45644;-58
2023/01/02 00:57:16;;;;;;;;;6.00;5.00;;;;;15.53;63.21;100814.31;5058885;28;46363;-58
2023/01/02 00:59:41;;;;;;;;;6.25;4.25;;;;;15.54;63.00;100824.84;5058267;28;45363;-58
2023/01/02 01:02:06;;;;;;;;;6.25;5.75;;;;;15.51;62.88;100819.69;5059530;28;45532;-58
2023/01/02 01:04:33;;;;;;;;;7.50;6.00;;;;;15.50;63.45;100820.59;5058425;28;45272;-58
2023/01/02 01:06:58;;;;;;;;;6.75;5.00;;;;;15.42;63.46;100827.91;5059225;28;46850;-58
2023/01/02 01:09:24;;;;;;;;;7.00;5.75;;;;;15.45;63.20;100827.81;5058935;28;45454;-58
2023/01/02 01:11:49;;;;;;;;;3.50;3.50;;;;;15.34;63.78;100819.38;5059223;28;45316;-58
2023/01/02 01:14:14;;;;;;;;;8.00;7.00;;;;;15.38;63.64;100826.28;5062487;28;45234;-58
2023/01/02 01:16:40;;;;;;;;;3.00;3.00;;;;;15.36;63.56;100821.03;5062696;28;45320;-58
2023/01/02 01:19:06;;;;;;;;;4.75;3.00;;;;;15.34;63.43;100817.56;5062476;28;45293;-58
2023/01/02 01:21:31;;;;;;;;;5.75;4.00;;;;;15.34;63.68;100822.88;5061443;28;45489;-58
2023/01/02 01:23:56;;;;;;;;;7.00;4.50;;;;;15.32;63.41;100830.00;5061067;28;45206;-58
2023/01/02 01:26:22;;;;;;;;;7.00;6.50;;;;;15.30;63.45;100815.94;5067573;27;45399;-58
2023/01/02 01:28:51;;;;;;;;;4.75;4.50;;;;;15.32;63.57;100829.13;5062299;28;45395;-58
2023/01/02 01:31:16;;;;;;;;;3.75;3.75;;;;;15.27;63.65;100842.53;5062575;28;45434;-58
2023/01/02 01:33:43;;;;;;;;;6.50;5.25;;;;;15.23;64.28;100839.13;5060768;28;45925;-58
2023/01/02 01:36:11;;;;;;;;;6.25;4.00;;;;;15.19;64.16;100837.47;5062240;28;46217;-58
2023/01/02 01:38:36;;;;;;;;;4.25;3.00;;;;;15.16;64.12;100847.31;5060881;28;45248;-58
2023/01/02 01:41:02;;;;;;;;;4.75;2.50;;;;;15.11;64.01;100843.00;5062047;28;45307;-58
2023/01/02 01:43:45;;;;;;;;;3.50;2.50;;;;;15.13;64.34;100850.88;5060128;28;45289;-58
2023/01/02 01:46:20;;;;;;;;;5.25;3.00;;;;;15.04;64.53;100844.13;5062001;28;45259;-58
2023/01/02 01:48:48;;;;;;;;;3.50;3.00;;;;;15.00;64.79;100836.34;5061966;28;45422;-58
2023/01/02 01:51:15;;;;;;;;;6.25;3.75;;;;;14.95;64.72;100847.94;5062083;28;45342;-58
2023/01/02 01:53:43;;;;;;;;;3.00;2.75;;;;;14.96;64.93;100851.44;5061295;28;45346;-58
2023/01/02 01:56:10;;;;;;;;;5.50;4.25;;;;;14.92;64.54;100853.31;5061703;28;46208;-58
2023/01/02 01:58:41;;;;;;;;;1.50;1.50;;;;;14.89;64.63;100868.41;5061946;28;45283;-58
2023/01/02 02:01:11;;;;;;;;;2.75;2.75;;;;;14.85;65.03;100861.47;5061973;28;45338;-58
2023/01/02 02:03:38;;;;;;;;;4.00;2.00;;;;;14.84;64.63;100881.78;5061994;28;45500;-58
2023/01/02 02:06:03;;;;;;;;;4.50;2.00;;;;;14.82;65.45;100891.53;5061652;28;45347;-58
2023/01/02 02:08:49;;;;;;;;;2.50;2.50;;;;;14.80;65.07;100896.00;5061756;28;45414;-58
2023/01/02 02:11:14;;;;;;;;;6.00;3.00;;;;;14.73;65.38;100883.84;5061577;28;45374;-58
2023/01/02 02:13:40;;;;;;;;;2.00;1.25;;;;;14.73;65.62;100902.38;5061640;28;45256;-58
2023/01/02 02:16:15;;;;;;;;;4.00;4.00;;;;;14.68;65.25;100901.63;5062062;27;45465;-58
2023/01/02 02:18:58;;;;;;;;;2.75;2.00;;;;;14.64;65.31;100900.84;5061600;28;45392;-58
2023/01/02 02:21:55;;;;;;;;;3.50;2.75;;;;;14.62;65.42;100906.16;5049704;28;45332;-58
2023/01/02 02:24:58;;;;;;;;;2.25;2.00;;;;;14.59;65.59;100905.38;5057208;28;45547;-58
2023/01/02 02:27:44;;;;;;;;;2.75;2.75;;;;;14.56;65.93;100898.41;5051485;28;46139;-58
2023/01/02 02:30:14;;;;;;;;;5.00;2.25;;;;;14.55;65.88;100907.25;5075822;28;45406;-58
2023/01/02 02:33:04;;;;;;;;;2.00;2.00;;;;;14.52;65.87;100907.34;5061079;28;45347;-58
2023/01/02 02:36:02;;;;;;;;;4.25;2.00;;;;;14.47;66.19;100911.88;5060869;28;45315;-58
2023/01/02 02:38:40;;;;;;;;;3.00;3.00;;;;;14.39;66.52;100920.03;5053930;28;47148;-58
2023/01/02 02:41:38;;;;;;;;;3.75;3.00;;;;;14.38;66.24;100904.22;5048724;28;45311;-58
2023/01/02 02:44:33;;;;;;;;;3.50;2.00;;;;;14.31;66.45;100903.50;5060092;28;45338;-58
2023/01/02 02:47:13;;;;;;;;;5.25;4.00;;;;;14.32;66.98;100896.47;5060922;28;45378;-58
2023/01/02 02:49:48;;;;;;;;;2.75;2.50;;;;;14.28;66.35;100891.22;5060934;28;45268;-58
2023/01/02 02:52:13;;;;;;;;;6.75;3.00;;;;;14.24;66.70;100897.53;5059234;28;45554;-58
2023/01/02 02:54:49;;;;;;;;;4.25;3.25;;;;;14.22;67.23;100896.69;5060859;28;45280;-58
2023/01/02 02:57:16;;;;;;;;;4.00;4.00;;;;;14.23;66.63;100905.50;5047713;28;45371;-58
2023/01/02 02:59:42;;;;;;;;;4.25;3.00;;;;;14.24;66.71;100900.16;5058233;28;46353;-58
2023/01/02 03:02:13;;;;;;;;;7.00;4.00;;;;;14.22;67.12;100909.91;5060882;28;45225;-58
2023/01/02 03:04:39;;;;;;;;;8.25;5.00;;;;;14.23;66.78;100911.63;5060938;28;45231;-58
2023/01/02 03:07:20;;;;;;;;;3.75;2.25;;;;;14.21;66.98;100905.50;5060942;28;45268;-58
2023/01/02 03:09:56;;;;;;;;;5.00;4.00;;;;;14.19;67.12;100904.72;5059598;28;46210;-58
2023/01/02 03:12:33;;;;;;;;;5.50;3.75;;;;;14.16;67.25;100909.19;5060381;28;45383;-58
2023/01/02 03:15:14;;;;;;;;;4.50;3.00;;;;;14.17;67.03;100903.88;5048645;28;45475;-58
2023/01/02 03:17:58;;;;;;;;;4.00;4.00;;;;;14.13;67.06;100913.66;5060641;28;45358;-58
2023/01/02 03:20:28;;;;;;;;;5.25;4.25;;;;;14.09;67.40;100912.00;5060489;28;47352;-58
2023/01/02 03:23:00;;;;;;;;;5.00;4.00;;;;;14.11;67.32;100898.75;5060532;28;45432;-58
2023/01/02 03:25:25;;;;;;;;;2.50;2.50;;;;;14.10;67.32;100911.09;5048792;28;45294;-58
2023/01/02 03:27:55;;;;;;;;;6.25;5.75;;;;;14.10;67.35;100897.88;5055228;28;45415;-58
2023/01/02 03:30:21;;;;;;;;;4.50;3.75;;;;;14.10;67.19;100912.84;5060467;28;46380;-58
2023/01/02 03:33:16;;;;;;;;;5.00;3.50;;;;;14.07;67.22;100921.75;5060337;28;45177;-58
2023/01/02 03:35:48;;;;;;;;;3.25;2.75;;;;;14.03;67.88;100922.72;5053286;28;45240;-58
2023/01/02 03:38:19;;;;;;;;;2.50;2.00;;;;;14.06;67.59;100927.06;5060488;28;45278;-58
2023/01/02 03:40:54;;;;;;;;;2.00;2.00;;;;;14.04;67.43;100923.63;5059895;28;46254;-58
2023/01/02 03:43:30;;;;;;;;;6.75;3.00;;;;;14.04;67.35;100931.53;5058263;28;45510;-58
2023/01/02 03:46:07;;;;;;;;;5.25;3.00;;;;;14.04;67.74;100944.75;5060513;28;45385;-58
2023/01/02 03:48:38;;;;;;;;;3.50;3.50;;;;;14.03;67.71;100943.00;5060069;28;46698;-58
2023/01/02 03:51:03;;;;;;;;;3.75;2.50;;;;;14.02;67.94;100949.19;5060015;28;46106;-58
2023/01/02 03:53:30;;;;;;;;;3.25;3.00;;;;;14.03;67.63;100948.31;5059997;28;45413;-57
2023/01/02 03:56:32;;;;;;;;;4.25;2.00;;;;;14.00;67.86;100956.28;5060054;28;45501;-58
2023/01/02 03:59:04;;;;;;;;;3.00;3.00;;;;;13.97;68.02;100951.94;5049175;28;45249;-57
2023/01/02 04:01:44;;;;;;;;;2.75;2.75;;;;;13.97;68.08;100960.75;5059764;28;45324;-58
2023/01/02 04:04:09;;;;;;;;;3.00;2.25;;;;;13.95;68.14;100959.06;5059907;28;45386;-58
2023/01/02 04:06:41;;;;;;;;;2.50;1.50;;;;;13.95;68.47;100952.00;5060039;28;45271;-58
2023/01/02 04:09:12;;;;;;;;;1.50;1.50;;;;;13.91;68.17;100955.63;5060249;28;45273;-58
2023/01/02 04:11:42;;;;;;;;;3.50;2.00;;;;;13.90;67.89;100958.28;5059564;28;47707;-58
2023/01/02 04:14:18;;;;;;;;;1.00;1.00;;;;;13.90;68.38;100959.16;5059779;28;45242;-58
2023/01/02 04:16:46;;;;;;;;;1.00;1.00;;;;;13.89;68.30;100957.44;5060108;28;45346;-58
2023/01/02 04:19:19;;;;;;;;;3.50;3.50;;;;;13.87;67.88;100964.50;5059798;28;45256;-58
2023/01/02 04:21:47;;;;;;;;;0.25;0.00;;;;;13.82;68.21;100955.84;5059827;28;46484;-58
2023/01/02 04:24:20;;;;;;;;;3.50;3.00;;;;;13.86;68.54;100951.34;5055966;28;45499;-58
2023/01/02 04:26:55;;;;;;;;;3.50;2.00;;;;;13.83;68.52;100960.22;5046352;28;45408;-58
2023/01/02 04:29:21;;;;;;;;;2.00;2.00;;;;;13.84;68.27;100976.94;5059738;28;45257;-58
2023/01/02 04:31:57;;;;;;;;;3.00;3.00;;;;;13.79;68.60;100969.97;5059770;28;45377;-58
2023/01/02 04:34:25;;;;;;;;;2.25;2.00;;;;;13.71;68.36;100968.44;5059504;28;45410;-58
2023/01/02 04:36:50;;;;;;;;;0.25;0.00;;;;;13.77;68.23;100971.81;5059711;28;45446;-58
2023/01/02 04:39:19;;;;;;;;;1.00;1.00;;;;;13.76;68.31;100982.38;5059658;28;45577;-58
2023/01/02 04:41:44;;;;;;;;;0.50;0.50;;;;;13.77;68.28;100978.84;5057202;28;45311;-57
2023/01/02 04:44:09;;;;;;;;;2.50;1.50;;;;;13.75;68.33;100989.47;5059589;28;45507;-58
2023/01/02 04:46:35;;;;;;;;;2.00;1.00;;;;;13.74;68.70;100992.13;5059719;28;45475;-58
2023/01/02 04:49:00;;;;;;;;;0.25;0.25;;;;;13.72;68.35;100994.81;5063209;28;45249;-57
2023/01/02 04:51:26;;;;;;;;;2.50;1.00;;;;;13.70;68.26;101004.53;5058304;28;47471;-58
2023/01/02 04:53:52;;;;;;;;;1.75;1.00;;;;;13.65;68.51;101012.56;5063088;28;45438;-58
2023/01/02 04:56:18;;;;;;;;;1.75;1.75;;;;;13.65;68.56;101007.28;5062794;28;45434;-58
2023/01/02 04:58:44;;;;;;;;;1.50;1.50;;;;;13.63;68.69;101022.31;5063060;28;45306;-58
2023/01/02 05:01:11;;;;;;;;;0.00;0.00;;;;;13.63;68.84;101026.69;5062788;28;46006;-57
2023/01/02 05:03:41;;;;;;;;;0.00;0.00;;;;;13.57;68.83;101016.28;5063110;28;45294;-58
2023/01/02 05:06:07;;;;;;;;;1.00;1.00;;;;;13.59;68.47;101025.03;5067194;28;45372;-57
2023/01/02 05:08:33;;;;;;;;;0.00;0.00;;;;;13.54;68.70;101034.84;5062971;28;45343;-58
2023/01/02 05:11:06;;;;;;;;;0.00;0.00;;;;;13.49;68.70;101046.34;5062248;28;46315;-58
2023/01/02 05:13:32;;;;;;;;;0.00;0.00;;;;;13.45;68.92;101046.47;5062764;28;45435;-58
2023/01/02 05:15:57;;;;;;;;;0.00;0.00;;;;;13.44;68.53;101040.31;5062750;28;45383;-58
2023/01/02 05:18:22;;;;;;;;;0.00;0.00;;;;;13.42;68.58;101057.97;5062866;28;45255;-58
2023/01/02 05:20:48;;;;;;;;;1.00;1.00;;;;;13.39;68.58;101059.78;5062445;28;45275;-58
2023/01/02 05:25:57;;;;;;;;;0.00;0.00;;;;;13.36;68.77;101073.00;5058860;28;45373;-57
2023/01/02 05:28:22;;;;;;;;;0.00;0.00;;;;;13.33;68.55;101069.53;5060788;28;45479;-57
2023/01/02 05:30:48;;;;;;;;;0.00;0.00;;;;;13.32;68.70;101077.50;5062521;28;45173;-58
2023/01/02 05:33:14;;;;;;;;;1.00;0.00;;;;;13.26;68.43;101078.47;5062360;28;45319;-58
2023/01/02 05:35:39;;;;;;;;;0.00;0.00;;;;;13.24;68.56;101074.13;5062493;28;45406;-58
2023/01/02 05:38:04;;;;;;;;;0.00;0.00;;;;;13.24;69.16;101079.41;5062441;28;45370;-58
2023/01/02 05:40:29;;;;;;;;;1.50;0.00;;;;;13.19;68.84;101092.69;5062074;28;45208;-58
2023/01/02 05:42:56;;;;;;;;;1.00;0.00;;;;;13.17;69.01;101098.00;5059867;28;45430;-58
2023/01/02 05:45:21;;;;;;;;;1.00;0.00;;;;;13.17;68.97;101102.44;5078018;28;45292;-58
2023/01/02 05:47:47;;;;;;;;;0.75;0.75;;;;;13.14;69.07;101103.34;5062213;28;45624;-57
2023/01/02 05:50:12;;;;;;;;;0.00;0.00;;;;;13.14;68.59;101102.47;5062088;28;45244;-58
2023/01/02 05:52:37;;;;;;;;;0.00;0.00;;;;;13.09;69.12;101113.09;5062171;28;45245;-58
2023/01/02 05:55:03;;;;;;;;;0.00;0.00;;;;;13.09;68.92;101112.25;5062201;28;45259;-57
2023/01/02 05:57:28;;;;;;;;;0.75;0.00;;;;;13.07;68.83;101121.94;5061950;28;45337;-58
2023/01/02 05:59:53;;;;;;;;;0.00;0.00;;;;;13.06;69.16;101126.38;5057305;28;46163;-58
2023/01/02 06:02:19;;;;;;;;;0.00;0.00;;;;;13.01;69.03;101122.94;5061812;28;45396;-58
2023/01/02 06:04:44;;;;;;;;;1.25;0.00;;;;;13.01;69.06;101122.94;5061755;28;45383;-58
2023/01/02 06:07:09;;;;;;;;;0.00;0.00;;;;;12.97;68.86;101119.47;5061701;28;45437;-58
2023/01/02 06:09:35;;;;;;;;;0.00;0.00;;;;;12.94;68.99;101124.81;5061426;28;46167;-58
2023/01/02 06:12:00;;;;;;;;;0.00;0.00;;;;;12.93;69.08;101123.09;5061461;28;45491;-58
2023/01/02 06:14:26;;;;;;;;;0.00;0.00;;;;;12.89;68.73;101128.44;5061598;28;45405;-58
2023/01/02 06:16:51;;;;;;;;;0.00;0.00;;;;;12.89;68.89;101124.00;5061631;28;45346;-58
2023/01/02 06:19:16;;;;;;;;;0.00;0.00;;;;;12.81;69.02;101136.47;5061401;28;45856;-58
2023/01/02 06:21:42;;;;;;;;;0.00;0.00;;;;;12.84;68.89;101145.22;5061500;28;45317;-58
2023/01/02 06:24:07;;;;;;;;;0.00;0.00;;;;;12.81;69.12;101160.22;5059891;28;45382;-58
2023/01/02 06:26:33;;;;;;;;;1.00;1.00;;;;;12.80;68.85;101162.00;5045991;28;45331;-58
2023/01/02 06:28:58;;;;;;;;;1.00;1.00;;;;;12.78;68.97;101163.78;5061157;28;46035;-58
2023/01/02 06:31:26;;;;;;;;;0.00;0.00;;;;;12.75;68.93;101168.22;5061448;28;45157;-57
2023/01/02 06:33:59;;;;;;;;;0.00;0.00;;;;;12.73;68.85;101167.38;5061283;28;45339;-58
2023/01/02 06:36:27;;;;;;;;;0.00;0.00;;;;;12.74;68.91;101170.00;5061209;28;45161;-58
2023/01/02 06:38:52;;;;;;;;;0.00;0.00;;;;;12.72;68.81;101176.19;5061114;28;45264;-57
2023/01/02 06:41:18;;;;;;;;;0.00;0.00;;;;;12.68;69.03;101184.16;5076336;28;45312;-57
2023/01/02 06:43:46;;;;;;;;;0.75;0.75;;;;;12.71;68.81;101185.00;5059197;28;45283;-57
2023/01/02 06:46:12;;;;;;;;;0.00;0.00;;;;;12.70;68.85;101178.84;5061227;28;45449;-58
2023/01/02 06:48:38;;;;;;;;;0.00;0.00;;;;;12.65;68.87;101183.31;5060807;28;45317;-57
2023/01/02 06:51:09;;;;;;;;;4.50;3.75;;;;;12.62;68.72;101186.88;5060848;27;45324;-57
2023/01/02 06:53:36;;;;;;;;;5.25;5.25;;;;;12.62;68.61;101181.59;5061448;28;45427;-57
2023/01/02 06:56:02;;;;;;;;;0.00;0.00;;;;;12.60;68.54;101186.06;5060646;27;45587;-58
2023/01/02 06:58:29;;;;;;;;;0.00;0.00;;;;;12.58;68.60;101185.19;5076254;27;47476;-57
2023/01/02 07:01:01;;;;;;;;;0.00;0.00;;;;;12.61;68.56;101185.13;5060824;28;45179;-58
2023/01/02 07:03:27;;;;;;;;;1.00;0.00;;;;;12.60;68.88;101180.78;5060773;28;45398;-57
2023/01/02 07:05:52;;;;;;;;;0.00;0.00;;;;;12.60;68.71;101199.22;5060659;28;45547;-57
2023/01/02 07:08:17;;;;;;;;;0.00;0.00;;;;;12.58;68.53;101187.81;5060719;28;46231;-58
2023/01/02 07:10:43;;;;;;;;;0.00;0.00;;;;;12.55;68.43;101169.41;5060184;28;45683;-58
2023/01/02 07:13:08;;;;;;;;;0.00;0.00;;;;;12.51;68.50;101171.25;5060533;28;45270;-58
2023/01/02 07:15:34;;;;;;;;;0.00;0.00;;;;;12.51;68.51;101167.72;5060741;28;45544;-58
2023/01/02 07:18:00;;;;;;;;;0.00;0.00;;;;;12.44;68.96;101164.31;5060698;28;46086;-58
2023/01/02 07:20:25;;;;;;;;;0.00;0.00;;;;;12.27;68.56;101139.97;5058321;28;45650;-57
2023/01/02 07:22:52;;;;;;;;;1.50;0.00;;;;;12.40;68.62;101159.09;5074868;28;45670;-57
2023/01/02 07:25:19;;;;;;;;;0.00;0.00;;;;;12.41;68.64;101174.03;5047810;28;45451;-59
2023/01/02 07:27:44;;;;;;;;;0.25;0.00;;;;;12.44;68.62;101184.50;5053199;28;45437;-59
2023/01/02 07:30:10;;;;;;;;;0.00;0.00;;;;;12.48;68.14;101186.22;5061144;28;45418;-58
2023/01/02 07:32:35;;;;;;;;;0.00;0.00;;;;;12.48;68.51;101199.41;5060784;28;45430;-58
2023/01/02 07:35:01;;;;;;;;;0.00;0.00;;;;;12.47;68.45;101192.41;5060478;28;45318;-59
2023/01/02 07:37:26;;;;;;;;;0.00;0.00;;;;;12.51;68.39;101204.63;5049470;28;46431;-59
2023/01/02 07:39:52;;;;;;;;;2.00;1.00;;;;;12.51;68.60;101209.91;5060606;28;45438;-59
2023/01/02 07:42:17;;;;;;;;;0.00;0.00;;;;;12.42;68.67;101205.63;5058352;28;45342;-58
2023/01/02 07:44:43;;;;;;;;;0.00;0.00;;;;;12.44;68.38;101208.22;5060616;28;45320;-59
2023/01/02 07:47:08;;;;;;;;;0.00;0.00;;;;;12.40;68.50;101206.53;5076358;27;46528;-59
2023/01/02 07:49:33;;;;;;;;;0.25;0.00;;;;;12.34;68.21;101202.25;5061204;28;45255;-59
2023/01/02 07:51:59;;;;;;;;;0.00;0.00;;;;;12.31;68.59;101220.72;5060508;28;45411;-59
2023/01/02 07:54:24;;;;;;;;;2.25;1.50;;;;;12.31;68.58;101224.25;5060313;28;45358;-59
2023/01/02 07:56:51;;;;;;;;;0.50;0.50;;;;;12.30;68.58;101226.88;5059849;28;46010;-59
2023/01/02 07:59:16;;;;;;;;;0.00;0.00;;;;;12.25;68.63;101232.22;5025936;28;45254;-59
2023/01/02 08:01:41;;;;;;;;;0.50;0.00;;;;;12.24;68.69;101241.03;5059966;28;45336;-59
2023/01/02 08:04:07;;;;;;;;;1.25;1.25;;;;;12.25;68.92;101242.78;5055780;28;45661;-58
2023/01/02 08:06:33;;;;;;;;;0.00;0.00;;;;;12.31;68.70;101254.97;5038944;28;47327;-58
2023/01/02 08:08:58;;;;;;;;;0.00;0.00;;;;;12.26;68.63;101257.66;5052211;28;45441;-59
2023/01/02 08:11:24;;;;;;;;;1.00;0.50;;;;;12.32;68.94;101269.91;5060071;28;45411;-59
2023/01/02 08:13:49;;;;;;;;;2.00;0.00;;;;;12.33;68.70;101269.88;5060317;28;45324;-59
2023/01/02 08:16:18;;;;;;;;;3.00;1.25;;;;;12.30;68.69;101263.78;5060044;28;46648;-59
2023/01/02 08:18:44;;;;;;;;;1.00;1.00;;;;;12.31;68.94;101268.16;5060147;28;45219;-59
2023/01/02 08:21:10;;;;;;;;;2.00;0.50;;;;;12.33;68.91;101259.34;5059971;28;45170;-59
2023/01/02 08:23:36;;;;;;;;;0.00;0.00;;;;;12.32;68.77;101268.13;5064772;28;45610;-59
2023/01/02 08:26:04;;;;;;;;;0.00;0.00;;;;;12.30;68.62;101266.41;5050782;28;45352;-58
2023/01/02 08:28:31;;;;;;;;;1.25;0.75;;;;;12.23;68.60;101272.66;5066027;28;45401;-60
2023/01/02 08:30:57;;;;;;;;;0.25;0.25;;;;;12.28;68.69;101269.06;5082233;28;45541;-59
2023/01/02 08:33:22;;;;;;;;;1.00;1.00;;;;;12.30;68.72;101279.59;5066036;28;45459;-60
2023/01/02 08:35:48;;;;;;;;;2.00;1.00;;;;;12.31;68.27;101281.34;5063580;28;45555;-59
2023/01/02 08:38:14;;;;;;;;;2.00;1.00;;;;;12.27;68.97;101291.03;5063678;28;45713;-58
2023/01/02 08:40:39;;;;;;;;;1.00;0.00;;;;;12.27;68.82;101285.78;5065046;28;45327;-59
2023/01/02 08:43:08;;;;;;;;;0.00;0.00;;;;;12.29;68.68;101289.25;5064365;28;45461;-59
2023/01/02 08:45:33;;;;;;;;;1.00;0.00;;;;;12.28;68.64;101303.31;5065176;28;45449;-60
2023/01/02 08:47:59;;;;;;;;;1.00;1.00;;;;;12.26;68.79;101307.72;5064784;28;45338;-59
2023/01/02 08:50:24;;;;;;;;;1.50;0.00;;;;;12.28;68.51;101327.03;5064920;28;45590;-60
2023/01/02 08:52:50;;;;;;;;;1.00;1.00;;;;;12.28;68.50;101348.13;5065214;28;45443;-60
2023/01/02 08:55:15;;;;;;;;;0.25;0.25;;;;;12.26;68.89;101357.81;5065402;28;46119;-59
2023/01/02 08:57:41;;;;;;;;;1.00;1.00;;;;;12.27;68.82;101372.72;5065449;28;45802;-59
2023/01/02 09:00:07;;;;;;;;;1.00;0.00;;;;;12.28;68.96;101385.03;5064860;28;45502;-59
2023/01/02 09:02:32;;;;;;;;;0.00;0.00;;;;;12.28;68.93;101400.84;5057906;28;45561;-60
2023/01/02 09:04:58;;;;;;;;;1.00;0.00;;;;;12.29;68.92;101399.06;5077239;27;47945;-60
2023/01/02 09:07:24;;;;;;;;;0.00;0.00;;;;;12.27;68.88;101412.25;5064452;28;45829;-60
2023/01/02 09:09:50;;;;;;;;;0.25;0.25;;;;;12.27;68.78;101417.53;5062341;28;45417;-60
2023/01/02 09:12:16;;;;;;;;;0.00;0.00;;;;;12.28;68.89;101418.41;5062022;28;45421;-60
2023/01/02 09:14:41;;;;;;;;;1.00;0.00;;;;;12.27;68.89;101420.16;5062556;28;46720;-60
2023/01/02 09:17:06;;;;;;;;;1.00;1.00;;;;;12.25;68.69;101416.69;5064036;28;45460;-60
2023/01/02 09:19:32;;;;;;;;;0.00;0.00;;;;;12.29;68.62;101420.13;5064195;28;45481;-60
2023/01/02 09:21:58;;;;;;;;;1.75;1.00;;;;;12.31;68.93;101415.75;5064314;28;45436;-57
2023/01/02 09:24:23;;;;;;;;;1.25;1.25;;;;;12.31;68.89;101406.09;5063931;28;46128;-58
2023/01/02 09:26:49;;;;;;;;;0.50;0.50;;;;;12.33;68.85;101406.91;5076987;28;45462;-59
2023/01/02 09:29:14;;;;;;;;;0.00;0.00;;;;;12.33;68.70;101421.88;5061064;28;45402;-60
2023/01/02 09:31:40;;;;;;;;;1.00;0.75;;;;;12.31;68.88;101424.53;5065409;28;45373;-59
2023/01/02 09:34:06;;;;;;;;;3.00;3.00;;;;;12.31;68.99;101428.91;5062877;28;46381;-59
2023/01/02 09:36:32;;;;;;;;;3.50;2.00;;;;;12.33;68.93;101443.81;5058906;28;45456;-59
2023/01/02 09:39:00;;;;;;;;;2.25;1.75;;;;;12.31;68.83;101440.34;5077733;28;45494;-59
2023/01/02 09:41:41;;;;;;;;;2.00;2.00;;;;;12.30;68.99;101454.41;5060650;28;45465;-58
2023/01/02 09:44:16;;;;;;;;;2.00;2.00;;;;;12.35;68.79;101449.06;5057909;28;47876;-59
2023/01/02 09:46:45;;;;;;;;;1.25;1.25;;;;;12.32;68.51;101451.75;5061900;28;45320;-59
2023/01/02 09:49:17;;;;;;;;;3.00;2.00;;;;;12.33;68.73;101450.88;5060623;27;45284;-59
2023/01/02 09:51:43;;;;;;;;;4.00;2.75;;;;;12.35;68.54;101464.88;5061601;28;45509;-59
2023/01/02 09:54:30;;;;;;;;;2.50;2.50;;;;;12.32;68.79;101478.09;5061810;28;45422;-59
2023/01/02 09:57:24;;;;;;;;;3.00;2.00;;;;;12.34;69.03;101485.09;5061142;28;45325;-59
2023/01/02 09:59:55;;;;;;;;;4.00;3.00;;;;;12.33;68.80;101493.03;5063914;28;45621;-61
2023/01/02 10:02:44;;;;;;;;;1.50;1.50;;;;;12.34;68.98;101500.06;5061764;28;45533;-62
2023/01/02 10:05:50;;;;;;;;;1.00;1.00;;;;;12.34;68.55;101503.56;5048896;28;46383;-60
2023/01/02 10:08:40;;;;;;;;;0.00;0.00;;;;;12.37;69.17;101513.19;5061773;28;45202;-60
2023/01/02 10:11:38;;;;;;;;;1.75;1.75;;;;;12.38;68.84;101520.22;5061016;28;45399;-63
2023/01/02 10:14:25;;;;;;;;;1.25;1.25;;;;;12.39;69.06;101505.25;5066095;28;45233;-64
2023/01/02 10:16:58;;;;;;;;;1.00;1.00;;;;;12.39;68.88;101500.00;5061482;28;46470;-64
2023/01/02 10:19:57;;;;;;;;;3.00;2.00;;;;;12.41;68.75;101500.88;5061313;28;45460;-64
2023/01/02 10:22:32;;;;;;;;;0.25;0.25;;;;;12.39;68.83;101489.44;5061518;28;45473;-60
2023/01/02 10:25:21;;;;;;;;;0.50;0.50;;;;;12.33;68.76;101487.75;5052921;28;45199;-63
2023/01/02 10:27:59;;;;;;;;;1.00;1.00;;;;;12.32;69.16;101480.75;5054386;28;46086;-62
2023/01/02 10:30:28;;;;;;;;;1.00;1.00;;;;;12.31;68.79;101466.69;5059974;28;45497;-62
2023/01/02 10:33:03;;;;;;;;;1.00;1.00;;;;;12.31;68.95;101450.88;5050888;28;45441;-60
2023/01/02 10:35:35;;;;;;;;;1.75;1.75;;;;;12.35;68.92;101464.88;5061097;28;45286;-60
2023/01/02 10:38:01;;;;;;;;;3.00;2.75;;;;;12.37;68.83;101480.72;5053381;28;46222;-59
2023/01/02 10:40:29;;;;;;;;;2.00;2.00;;;;;12.38;69.16;101495.59;5060860;28;45335;-60
2023/01/02 10:42:57;;;;;;;;;1.75;1.75;;;;;12.40;68.96;101505.28;5058562;28;45320;-60
2023/01/02 10:45:22;;;;;;;;;1.75;1.00;;;;;12.42;69.02;101500.84;5060350;28;45472;-59
2023/01/02 10:47:48;;;;;;;;;1.75;1.75;;;;;12.40;68.98;101502.63;5060752;28;46018;-59
2023/01/02 10:50:27;;;;;;;;;1.00;1.00;;;;;12.42;69.03;101505.25;5061002;28;45275;-59
2023/01/02 10:53:05;;;;;;;;;2.00;2.00;;;;;12.41;68.94;101511.41;5060988;28;45255;-59
2023/01/02 10:55:40;;;;;;;;;2.75;2.75;;;;;12.44;69.13;101533.34;5060738;28;45318;-59
2023/01/02 10:58:25;;;;;;;;;1.00;1.00;;;;;12.48;69.36;101539.47;5053264;28;46068;-59
2023/01/02 11:01:02;;;;;;;;;2.00;2.00;;;;;12.47;69.16;101550.91;5060904;28;45390;-59
2023/01/02 11:03:27;;;;;;;;;4.00;2.75;;;;;12.43;69.01;101542.13;5060959;28;45311;-59
2023/01/02 11:05:56;;;;;;;;;1.25;1.25;;;;;12.44;69.19;101537.72;5060931;28;45250;-58
2023/01/02 11:08:32;;;;;;;;;2.00;2.00;;;;;12.44;69.28;101545.63;5060451;28;45366;-57
2023/01/02 11:11:00;;;;;;;;;2.00;2.00;;;;;12.46;69.17;101543.88;5060146;28;45346;-58
2023/01/02 11:13:32;;;;;;;;;2.50;2.00;;;;;12.44;69.15;101540.34;5060567;28;45510;-58
2023/01/02 11:16:00;;;;;;;;;2.50;1.00;;;;;12.41;69.31;101545.69;5060414;28;45386;-58
2023/01/02 11:18:32;;;;;;;;;3.00;1.75;;;;;12.43;69.39;101568.50;5060359;28;46461;-59
2023/01/02 11:21:03;;;;;;;;;2.00;2.00;;;;;12.35;69.06;101562.41;5060476;28;45269;-59
2023/01/02 11:23:36;;;;;;;;;2.00;2.00;;;;;12.39;69.34;101569.41;5060680;28;45231;-59
2023/01/02 11:26:03;;;;;;;;;2.00;2.00;;;;;12.38;69.18;101572.94;5055988;28;45497;-59
2023/01/02 11:28:32;;;;;;;;;2.00;2.00;;;;;12.39;69.33;101560.63;5059587;28;45315;-59
2023/01/02 11:31:08;;;;;;;;;2.25;2.00;;;;;12.39;69.26;101565.88;5057869;28;45533;-59
2023/01/02 11:33:35;;;;;;;;;1.50;1.50;;;;;12.38;69.32;101562.41;5059869;28;45444;-59
2023/01/02 11:36:03;;;;;;;;;3.00;1.50;;;;;12.41;69.50;101566.75;5060105;28;45423;-59
2023/01/02 11:38:47;;;;;;;;;3.00;3.00;;;;;12.44;69.02;101556.19;5059790;28;45357;-59